Airfield :
LOGIN :

Register | Disclaimer

   EN    FR    IT 

 










Legend :    VFR   Marginal VFR   IFR   Intensive IFR   Very Intensive IFR
Visi :
Ceiling :
>= 8 km
>= 3000ft
5 to 8 km
1000 to 3000 ft
1500m to 5 km
500 to 1000 ft
800 to 1500m
200 to 500 ft
< 800m
< 200 ft
Symbols :   Thunderstorms  Fog  Heavy snow  Heavy precipitations  Wind > 20 kt
SIGMETs :     Misc.  Thunderstorms  Icing  Turbulence  Mountain Waves  Volcanic Ashes







- Airport Elevation : 1470 ft
- IATA code : KLU


LOWK - Klagenfurt

CURRENT METAR :
  • 192150Z AUTO VRB01KT 9999 BKN080 21/11 Q1023

EXPIRED METARs :
  • 192120Z AUTO VRB02KT 9999 BKN080 22/11 Q1023 NOSIG
  • 192050Z AUTO VRB02KT 9999 SCT070 BKN080 23/10 Q1023 NOSIG
  • 192020Z AUTO 02007KT 9999 FEW060 BKN070 24/10 Q1023 NOSIG
  • 191950Z AUTO 05006KT 9999 BKN070 24/11 Q1023 NOSIG
  • 191920Z 02006KT 360V060 9999 FEW070 BKN090 24/11 Q1022 NOSIG

TAF TAF LOWK
Valid from the 19 at 18:00 until the 20 at 18:00 UTC


191715Z 1918/2018 VRB02KT CAVOK TX27/2015Z TN14/2004Z
BECMG 2007/2010 09004KT 9999 FEW060
PROB40
TEMPO 2013/2018 12010KT FEW060CB
No reported NOTAMs for that airfield.



MET'MAP, your aeronautical weather chart ! - Copyright ORBIFLY December 2007 - Disclaimer

ORBIFLY MET'MAP TEAM :

Programming & Development : Alexandra Zaïnal
Concept & Development : Baudouin d'Aumeries
Co-Development & Prog : Marc-Olivier Méhu
Technical & hardware support : Manuel Goepfert

Contact : metmap@orbifly.com




SOURCES & CREDITS :

   NOAA